Airfield :
LOGIN :

Register | Disclaimer

   EN    FR    IT 

 










Legend :    VFR   Marginal VFR   IFR   Intensive IFR   Very Intensive IFR
Visi :
Ceiling :
>= 8 km
>= 3000ft
5 to 8 km
1000 to 3000 ft
1500m to 5 km
500 to 1000 ft
800 to 1500m
200 to 500 ft
< 800m
< 200 ft
Symbols :   Thunderstorms  Fog  Heavy snow  Heavy precipitations  Wind > 20 kt
SIGMETs :     Misc.  Thunderstorms  Icing  Turbulence  Mountain Waves  Volcanic Ashes






- Airport Elevation : 2595 ft
- IATA code : SLM


LESA - Salamanca Matacan

CURRENT METAR :
  • 192130Z AUTO 22006KT CAVOK 14/10 Q1016

EXPIRED METARs :
  • 192100Z AUTO 22007KT CAVOK 14/10 Q1016
  • 192030Z AUTO 24007KT 9999 FEW036 15/10 Q1015
  • 192000Z AUTO 24008KT CAVOK 16/10 Q1015
  • 191930Z AUTO 24008KT 210V280 9999 FEW037 17/10 Q1015

TAF TAF LESA
Valid from the 19 at 21:00 until the 20 at 21:00 UTC


192000Z 1921/2021 24010KT 9999 SCT035 BKN045 TX19/2015Z TN10/2005Z
PROB40
TEMPO 2003/2015 4000 SHRA RA BKN014 SCT030TCU
PROB40
TEMPO 2007/2021 24017G30KT
PROB30
TEMPO 2007/2010 4000 TSRA SCT030CB



MET'MAP, your aeronautical weather chart ! - Copyright ORBIFLY December 2007 - Disclaimer

ORBIFLY MET'MAP TEAM :

Programming & Development : Alexandra Zaïnal
Concept & original design : Baudouin d'Aumeries
Assistance for programming : Marc-Olivier Méhu
Technical & hardware support : Manuel Goepfert

Contact : metmap@orbifly.com




SOURCES & CREDITS :

   NOAA